Huvudsida
METAR-TAF:

METAR-TAF

Flygplatser :

Maun Airport

Maun, Botswana

latitud: 19-59S, longitud: 023-25E, höjd: 945 m

Aktuellt väderrapport

Denna rapport gjordes för 31 minuter sedan, klockan 08:00 UTC
Vind 13 kt från ost, varierande mellan ost/nordost och ost/sydost
Temperatur 18°C
Fuktighet 59%
Tryck 1028 hPa
Sikt 10 km eller mer
Inga moln under 1 500 m eller inga cumulonimbus

METAR: FBMN 250800Z 09013KT 060V120 CAVOK 18/10 Q1028

Tid: 10:31 (08:31 UTC)

Väderprognos

Denna rapport gjordes för 4 timmar och 31 minuter sedan, klockan 04:00 UTC
Prognos gäller från 25 kl. 06 UTC till 26 kl. 06 UTC
Vind 8 kt från ost/sydost
Sikt 10 km eller mer
Inga moln under 1 500 m eller inga cumulonimbus

TAF: FBMN 250400Z 2506/2606 12008KT CAVOK

Aktuella väderrapporter och prognoser från 4000 flygplatser (METAR- och TAF-rapporter).

De tillgängliga stationerna syns som gula och röda prickar på kartan.

För musen över prickarna för att se namnen på stationerna.

Klicka sedan för att få väderrapporter och prognoser.

För att ändra kartan: Klicka på de gröna knapparna med ett svart kors på för att zooma in; den gröna knappen med ett streck på för att zooma ut; eller på de gröna pilarna för angränsande kartor.


METAR-TAF: